Latest Coastal Weather Observations for King Island Airport

IDT60701

Issued at 7:02 am EST Monday 6 July 2015 (issued every 10 minutes, with the page automatically refreshed every 10 minutes)

About coastal observations | Map of coastal stations | Coastal observations for TAS | Marine services | Other Formats
Station Details ID: 098017 Name: KING ISLAND AIRPORT Lat: -39.88 Lon: 143.88 Height: 37.0 m
Data from the previous 72 hours. | See also: Recent months at King Island Airport
Date/Time
EST
Temp

°C
Wind Pressure Rain
since 9am
mm
Weather Cloud Vis
km
Sea
Height
m
Swell
Dir
 
Speed
knots
Gust
knots
hPa Trend Height
m
Period
s
Dir
06/07:00am 11.7 WNW 10 14 1012.9 - 12.0 - Partly cloudy 10 - - - -
06/06:30am 11.4 WNW 9 12 1012.8 - 12.0 - Partly cloudy 10 - - - -
06/06:00am 10.9 WNW 7 10 1012.7 - 12.0 Rain Cloudy 10 - - - -
06/05:30am 10.8 WNW 12 17 1012.8 - 12.0 - Partly cloudy 10 - - - -
06/05:06am 10.5 WNW 5 6 1012.5 - 11.8 - Partly cloudy 8 - - - -
06/05:00am 10.6 NW 4 5 1012.5 - 11.6 - Partly cloudy 8 - - - -
06/04:30am 10.9 WSW 6 7 1012.4 - 8.4 - Cloudy 5 - - - -
06/04:00am 11.4 NW 10 13 1012.8 - 5.8 - Partly cloudy 5 - - - -
06/03:57am 11.4 NW 11 15 1012.8 - 5.6 - Partly cloudy 5 - - - -
06/03:30am 11.4 WNW 13 17 1012.9 - 5.2 - Partly cloudy 9 - - - -
06/03:00am 12.0 NW 17 22 1012.9 - 3.6 Rain Cloudy 8 - - - -
06/02:30am 12.2 NW 14 16 1013.1 - 2.2 - Partly cloudy 9 - - - -
06/02:21am 12.3 NW 15 19 1013.0 - 2.0 - Partly cloudy 10 - - - -
06/02:08am 12.6 NW 16 20 1013.0 - 2.0 - Partly cloudy 10 - - - -
06/02:00am 12.6 NNW 18 21 1012.9 - 2.0 - Partly cloudy 10 - - - -
06/01:30am 12.4 NNW 16 19 1012.9 - 2.0 - Partly cloudy 10 - - - -
06/01:08am 12.0 NW 16 20 1013.1 - 2.0 - Partly cloudy 10 - - - -
06/01:00am 12.0 NW 16 18 1013.2 - 2.0 - Partly cloudy 10 - - - -
06/12:30am 12.2 NW 20 25 1013.7 - 1.8 - Partly cloudy 10 - - - -
06/12:25am 12.2 NW 20 25 1013.7 - 1.8 - Partly cloudy 10 - - - -
06/12:00am 12.7 NW 20 27 1013.8 - 1.8 - Cloudy 10 - - - -
 
Date/Time
EST
Temp

°C
Wind Pressure Rain
since 9am
mm
Weather Cloud Vis
km
Sea
Height
m
Swell
Dir
 
Speed
knots
Gust
knots
hPa Trend Height
m
Period
s
Dir
05/11:30pm 12.9 NW 19 25 1013.7 - 1.8 - Partly cloudy 10 - - - -
05/11:00pm 13.3 NW 19 24 1013.7 - 1.8 - Partly cloudy 10 - - - -
05/10:30pm 13.3 NW 17 22 1013.8 - 1.8 - Partly cloudy 10 - - - -
05/10:00pm 13.2 NW 17 20 1013.9 - 1.8 - Partly cloudy 10 - - - -
05/09:30pm 13.5 NW 17 21 1014.0 - 1.6 - Cloudy 10 - - - -
05/09:00pm 13.3 NW 17 21 1014.2 - 1.6 Drizzle Cloudy 10 - - - -
05/08:30pm 13.2 NW 17 21 1014.1 - 1.6 - Partly cloudy 10 - - - -
05/08:00pm 13.1 NW 18 23 1014.2 - 1.6 - Partly cloudy 10 - - - -
05/07:30pm 13.0 NW 19 27 1014.3 - 1.6 - Cloudy 10 - - - -
05/07:00pm 12.8 NW 18 25 1014.3 - 1.6 - Partly cloudy 10 - - - -
05/06:30pm 13.1 NW 17 21 1014.2 - 1.6 - Cloudy 10 - - - -
05/06:00pm 12.8 NW 17 22 1014.2 - 1.6 Rain Cloudy 10 - - - -
05/05:30pm 13.2 NW 18 23 1014.1 - 1.6 - Cloudy 10 - - - -
05/05:00pm 12.9 NW 18 23 1014.1 - 1.6 - Cloudy 10 - - - -
05/04:46pm 12.6 NW 19 25 1014.1 - 1.6 - Cloudy 10 - - - -
05/04:30pm 12.2 NW 20 28 1014.2 - 1.4 - Partly cloudy 4 - - - -
05/04:24pm 12.5 NW 23 29 1014.3 - 0.6 - Partly cloudy 5 - - - -
05/04:00pm 12.9 NW 20 25 1014.1 - 0.2 - Partly cloudy 10 - - - -
05/03:54pm 12.8 NW 20 26 1014.2 - 0.2 - Partly cloudy 10 - - - -
05/03:39pm 12.5 NW 19 24 1014.2 - 0.0 - Partly cloudy 5 - - - -
05/03:30pm 13.2 NW 21 27 1014.2 - 0.0 - Partly cloudy 10 - - - -
05/03:00pm 13.6 NW 20 25 1014.2 - 0.0 - Cloudy 10 - - - -
05/02:30pm 13.2 NW 21 27 1014.4 - 0.0 - Partly cloudy 10 - - - -
05/02:00pm 13.3 NW 21 27 1014.6 - 0.0 - Partly cloudy 10 - - - -
05/01:30pm 13.3 NW 22 27 1014.9 - 0.0 - Partly cloudy 10 - - - -
05/01:00pm 13.5 NW 19 25 1015.1 - 0.0 - Partly cloudy 10 - - - -
05/12:30pm 13.5 NW 22 28 1015.3 - 0.0 - Partly cloudy 10 - - - -
05/12:00pm 13.8 NW 22 27 1015.5 - 0.0 - Mostly cloudy 10 - - - -
05/11:30am 13.6 NW 22 28 1015.8 - 0.0 - Partly cloudy 10 - - - -
05/11:00am 13.5 NW 20 26 1016.2 - 0.0 - Partly cloudy 10 - - - -
05/10:30am 13.7 NW 21 27 1016.3 - 0.0 - Partly cloudy 10 - - - -
05/10:00am 13.2 NW 21 27 1016.4 - 0.0 - Partly cloudy 10 - - - -
05/09:30am 13.0 NW 21 28 1016.4 - 0.0 - Partly cloudy 10 - - - -
05/09:00am 13.1 NW 22 29 1016.3 - 6.6 Recent precip. Cloudy 10 - - - -
05/08:30am 13.0 NW 23 28 1016.2 - 6.6 - Cloudy 10 - - - -
05/08:00am 13.0 NW 22 29 1016.0 - 6.4 - Partly cloudy 10 - - - -
05/07:30am 12.9 NW 21 28 1016.0 - 6.4 - Partly cloudy 10 - - - -
05/07:17am 13.0 NW 21 26 1015.9 - 6.4 - Partly cloudy 10 - - - -
05/07:00am 13.0 NW 21 29 1015.9 - 6.4 - Partly cloudy 9 - - - -
05/06:30am 13.1 NW 21 27 1015.8 - 6.4 - Partly cloudy 10 - - - -
05/06:00am 13.1 NW 20 25 1015.7 - 6.4 Rain Cloudy 10 - - - -
05/05:30am 13.0 NW 19 26 1015.7 - 6.4 - Cloudy 10 - - - -
05/05:00am 13.0 NW 19 25 1015.7 - 6.4 - Partly cloudy 10 - - - -
05/04:35am 13.0 NW 18 24 1015.8 - 6.2 - Partly cloudy 10 - - - -
05/04:30am 13.2 NW 18 23 1015.8 - 6.2 - Partly cloudy 10 - - - -
05/04:00am 13.2 NW 19 25 1016.1 - 6.2 - Partly cloudy 10 - - - -
05/03:30am 13.1 WNW 19 24 1016.5 - 6.2 - Partly cloudy 10 - - - -
05/03:00am 13.1 WNW 18 23 1016.6 - 6.2 - Cloudy 10 - - - -
05/02:30am 13.1 WNW 19 24 1016.8 - 6.2 - Partly cloudy 10 - - - -
05/02:00am 13.1 WNW 19 24 1016.8 - 6.2 - Partly cloudy 10 - - - -
05/01:30am 13.0 WNW 20 25 1016.7 - 6.2 - Partly cloudy 10 - - - -
05/01:00am 13.0 NW 20 25 1016.8 - 6.2 - Partly cloudy 10 - - - -
05/12:30am 13.0 NW 19 25 1017.1 - 6.2 - Partly cloudy 10 - - - -
05/12:00am 13.1 NW 20 25 1017.3 - 6.2 Showers Cloudy 10 - - - -
 
Date/Time
EST
Temp

°C
Wind Pressure Rain
since 9am
mm
Weather Cloud Vis
km
Sea
Height
m
Swell
Dir
 
Speed
knots
Gust
knots
hPa Trend Height
m
Period
s
Dir
04/11:51pm 13.1 WNW 19 25 1017.3 - 6.0 - Partly cloudy 10 - - - -
04/11:36pm 13.1 NW 19 23 1017.3 - 6.0 - Partly cloudy 10 - - - -
04/11:30pm 13.0 NW 19 25 1017.3 - 6.0 - Partly cloudy 10 - - - -
04/11:22pm 12.9 NW 19 25 1017.3 - 6.0 - Partly cloudy 10 - - - -
04/11:00pm 12.8 NW 17 20 1017.5 - 5.6 - Partly cloudy 7 - - - -
04/10:30pm 12.7 NW 18 22 1017.7 - 4.6 - Partly cloudy 10 - - - -
04/10:17pm 12.5 WNW 17 23 1017.7 - 4.4 - Partly cloudy 5 - - - -
04/10:00pm 12.8 NW 19 24 1017.8 - 3.8 - Partly cloudy 10 - - - -
04/09:30pm 13.1 WNW 15 21 1018.0 - 3.8 - Partly cloudy 10 - - - -
04/09:00pm 13.2 WNW 14 20 1018.1 - 3.8 - Cloudy 10 - - - -
04/08:30pm 13.2 WNW 15 21 1018.1 - 3.8 - Partly cloudy 10 - - - -
04/08:00pm 13.1 WNW 15 18 1018.2 - 3.8 - Partly cloudy 10 - - - -
04/07:30pm 12.7 WNW 14 20 1018.1 - 3.8 - Partly cloudy 10 - - - -
04/07:00pm 12.3 W 12 19 1018.2 - 3.8 - Partly cloudy 10 - - - -
04/06:31pm 12.2 W 16 24 1018.1 - 3.6 - Partly cloudy 9 - - - -
04/06:30pm 12.2 W 16 24 1018.1 - 3.6 - Partly cloudy 8 - - - -
04/06:16pm 12.2 W 15 20 1018.0 - 3.2 - Partly cloudy 5 - - - -
04/06:00pm 13.0 W 13 18 1017.9 - 2.0 - Cloudy 10 - - - -
04/05:53pm 12.8 W 13 18 1017.8 - 2.0 - Partly cloudy 10 - - - -
04/05:30pm 13.0 W 13 16 1017.6 - 2.0 - Partly cloudy 10 - - - -
04/05:00pm 12.9 W 15 20 1017.7 - 2.0 - Partly cloudy 10 - - - -
04/04:54pm 13.1 W 15 22 1017.7 - 2.0 - Partly cloudy 10 - - - -
04/04:30pm 13.2 W 14 21 1017.7 - 2.0 - Cloudy 10 - - - -
04/04:14pm 13.2 W 14 22 1017.8 - 2.0 - Partly cloudy 10 - - - -
04/04:00pm 13.2 W 15 20 1017.8 - 2.0 - Partly cloudy 10 - - - -
04/03:48pm 13.3 W 18 24 1017.7 - 2.0 - Partly cloudy 10 - - - -
04/03:30pm 13.4 W 16 25 1017.6 - 2.0 - Partly cloudy 10 - - - -
04/03:19pm 13.4 W 17 23 1017.5 - 2.0 - Partly cloudy 10 - - - -
04/03:12pm 13.6 W 17 26 1017.5 - 2.0 - Partly cloudy 10 - - - -
04/03:00pm 13.5 W 17 26 1017.4 - 2.0 - Cloudy 10 - - - -
04/02:30pm 13.4 WNW 18 24 1017.4 - 2.0 - Partly cloudy 10 - - - -
04/02:00pm 13.3 W 18 24 1017.4 - 2.0 - Partly cloudy 10 - - - -
04/01:30pm 13.2 WNW 18 25 1017.5 - 1.8 - Partly cloudy 10 - - - -
04/01:00pm 13.3 WNW 17 22 1017.6 - 1.4 - Partly cloudy 10 - - - -
04/12:30pm 13.5 W 18 23 1017.9 - 1.4 - Partly cloudy 10 - - - -
04/12:00pm 13.5 W 17 24 1018.1 - 1.4 Rain Cloudy 10 - - - -
04/11:30am 13.8 W 16 22 1018.4 - 1.4 - Partly cloudy 10 - - - -
04/11:17am 13.6 W 15 22 1018.5 - 1.4 - Partly cloudy 10 - - - -
04/11:12am 13.4 W 15 22 1018.5 - 1.4 - Partly cloudy 10 - - - -
04/11:04am 12.9 W 17 23 1018.6 - 1.4 - Partly cloudy 5 - - - -
04/11:01am 12.9 W 16 23 1018.7 - 1.2 - Partly cloudy 5 - - - -
04/11:00am 12.9 W 16 23 1018.7 - 1.0 - Partly cloudy 6 - - - -
04/10:30am 13.3 W 17 24 1018.7 - 0.2 - Partly cloudy 10 - - - -
04/10:08am 13.2 W 15 21 1018.6 - 0.2 - Partly cloudy 10 - - - -
04/10:00am 13.2 W 15 21 1018.6 - 0.2 - Partly cloudy 10 - - - -
04/09:30am 13.0 W 12 17 1018.5 - 0.0 - Partly cloudy 10 - - - -
04/09:00am 13.0 W 12 16 1018.4 - 3.8 - Cloudy 10 - - - -
04/08:30am 12.9 W 13 17 1018.5 - 3.8 - Partly cloudy 10 - - - -
04/08:00am 12.5 W 13 19 1018.1 - 3.8 - Partly cloudy 10 - - - -
04/07:50am 12.8 W 15 20 1018.1 - 3.8 - Partly cloudy 10 - - - -
04/07:39am 12.9 WSW 13 17 1018.1 - 3.8 - Partly cloudy 10 - - - -
04/07:30am 12.9 W 15 21 1018.1 - 3.8 - Partly cloudy 10 - - - -
04/07:00am 12.8 W 15 20 1017.9 - 3.8 - Partly cloudy 10 - - - -
04/06:50am 12.7 W 16 21 1017.9 - 3.8 - Partly cloudy 10 - - - -
04/06:30am 12.8 W 14 18 1017.7 - 3.8 - Partly cloudy 10 - - - -
04/06:00am 12.6 W 15 21 1017.4 - 3.8 Rain Cloudy 9 - - - -
04/05:30am 12.2 NW 25 30 1017.2 - 3.8 - Cloudy 8 - - - -
04/05:11am 12.1 NW 24 31 1017.1 - 3.8 - Cloudy 8 - - - -
04/05:00am 11.9 NW 23 30 1017.1 - 3.8 - Cloudy 5 - - - -
04/04:30am 11.9 NW 22 29 1017.2 - 1.8 - Cloudy 5 - - - -
04/04:00am 12.1 NW 24 30 1017.5 - 1.6 - Cloudy 5 - - - -
04/03:58am 12.1 NW 23 29 1017.5 - 1.6 - Cloudy 5 - - - -
04/03:45am 12.0 NW 22 30 1017.6 - 1.4 - Cloudy 8 - - - -
04/03:30am 12.0 NW 23 29 1017.7 - 1.4 - Partly cloudy 5 - - - -
04/03:09am 12.2 WNW 21 27 1018.0 - 1.4 - Partly cloudy 5 - - - -
04/03:00am 12.1 WNW 23 28 1018.1 - 1.4 - Cloudy 10 - - - -
04/02:30am 11.9 NW 20 26 1018.4 - 1.4 - Partly cloudy 7 - - - -
04/02:13am 11.6 WNW 23 29 1018.7 - 1.4 - Partly cloudy 9 - - - -
04/02:00am 11.4 WNW 23 30 1018.8 - 1.4 - Cloudy 5 - - - -
04/01:30am 10.9 NW 21 27 1019.0 - 0.8 - Cloudy 4 - - - -
04/01:00am 10.8 NW 20 27 1019.2 - 0.6 - Cloudy 4 - - - -
04/12:30am 10.6 NW 23 30 1019.7 - 0.4 - Partly cloudy 5 - - - -
04/12:00am 11.0 NW 21 28 1020.1 - 0.0 Showers Cloudy 4 - - - -
 
Date/Time
EST
Temp

°C
Wind Pressure Rain
since 9am
mm
Weather Cloud Vis
km
Sea
Height
m
Swell
Dir
 
Speed
knots
Gust
knots
hPa Trend Height
m
Period
s
Dir
03/11:53pm 11.1 NW 21 26 1020.1 - 0.0 - Partly cloudy 5 - - - -
03/11:38pm 11.1 NW 20 26 1020.3 - 0.0 - Partly cloudy 10 - - - -
03/11:30pm 11.0 NW 20 27 1020.3 - 0.0 - Partly cloudy 10 - - - -
03/11:11pm 10.9 NW 19 27 1020.4 - 0.0 - Partly cloudy 7 - - - -
03/11:01pm 11.1 WNW 21 27 1020.6 - 0.0 - Partly cloudy 8 - - - -
03/11:00pm 11.1 WNW 21 28 1020.6 - 0.0 - Partly cloudy 8 - - - -
03/10:30pm 11.8 WNW 21 26 1020.7 - 0.0 - Partly cloudy 10 - - - -
03/10:00pm 11.3 NW 20 27 1020.9 - 0.0 - Partly cloudy 10 - - - -
03/09:30pm 11.2 NW 22 27 1021.3 - 0.0 - Partly cloudy 10 - - - -
03/09:00pm 11.2 WNW 17 22 1021.5 - 0.0 Rain Cloudy 10 - - - -
03/08:30pm 11.1 WNW 20 27 1021.7 - 0.0 - Partly cloudy 10 - - - -
03/08:00pm 11.3 WNW 15 23 1021.7 - 0.0 - Partly cloudy 10 - - - -
03/07:30pm 11.0 WNW 16 23 1022.0 - 0.0 - Partly cloudy 10 - - - -
03/07:00pm 11.1 WNW 16 19 1022.3 - 0.0 - Partly cloudy 10 - - - -
03/06:30pm 10.9 WNW 16 21 1022.5 - 0.0 - Partly cloudy 10 - - - -
03/06:13pm 10.9 WNW 16 26 1022.5 - 0.0 - Partly cloudy 10 - - - -
03/06:00pm 10.9 WNW 17 24 1022.6 - 0.0 - Cloudy 10 - - - -
03/05:30pm 10.5 W 15 20 1022.7 - 0.0 - Partly cloudy 10 - - - -
03/05:00pm 10.5 WNW 19 25 1022.7 - 0.0 - Cloudy 10 - - - -
03/04:30pm 10.2 W 12 17 1022.9 - 0.0 - Partly cloudy 10 - - - -
03/04:05pm 10.1 WNW 17 27 1023.1 - 0.0 - Partly cloudy 10 - - - -
03/04:00pm 10.1 WNW 19 27 1023.3 - 0.0 - Partly cloudy 10 - - - -
03/03:55pm 10.1 WNW 15 25 1023.3 - 0.0 - Partly cloudy 10 - - - -
03/03:30pm 10.3 WNW 11 14 1023.4 - 0.0 - Partly cloudy 10 - - - -
03/03:00pm 9.6 W 14 21 1023.7 - 0.0 Rain Mostly cloudy 10 - - - -
03/02:30pm 10.2 WNW 15 21 1023.9 - 0.0 - Partly cloudy 10 - - - -
03/02:00pm 9.8 NW 15 19 1024.5 - 0.0 - Partly cloudy 10 - - - -
03/01:41pm 9.8 WNW 15 26 1024.7 - 0.0 - Partly cloudy 10 - - - -
03/01:30pm 10.7 WNW 16 20 1024.7 - 0.0 - Partly cloudy 10 - - - -
03/01:00pm 10.6 WNW 14 18 1025.0 - 0.0 - Cloudy 10 - - - -
03/12:30pm 10.3 WNW 15 20 1025.4 - 0.0 - Cloudy 10 - - - -
03/12:00pm 10.1 W 13 18 1025.8 - 0.0 - Cloudy 10 - - - -
03/11:30am 10.1 W 11 16 1026.1 - 0.0 - Partly cloudy 10 - - - -
03/11:00am 9.6 NW 9 14 1026.6 - 0.0 - Partly cloudy 10 - - - -
03/10:30am 9.4 W 9 14 1026.8 - 0.0 - Partly cloudy 10 - - - -
03/10:00am 9.2 W 14 19 1027.1 - 0.0 - Partly cloudy 10 - - - -
03/09:30am 9.2 W 10 16 1027.1 - 0.0 - Partly cloudy 10 - - - -
03/09:00am 9.6 W 9 14 1027.1 - 2.0 - Cloudy 10 - - - -
03/08:30am 9.4 W 7 11 1026.9 - 2.0 - Cloudy 10 - - - -
03/08:00am 8.9 W 8 11 1026.9 - 2.0 - Cloudy 10 - - - -
03/07:30am 8.4 W 5 8 1026.7 - 2.0 - Cloudy 10 - - - -

Other Formats:

Comma delimited format used in spreadsheet applications
http://www.bom.gov.au/fwo/IDT60701/IDT60701.94850.axf

JavaScript Object Notation format (JSON) in row-major order
http://www.bom.gov.au/fwo/IDT60701/IDT60701.94850.json